createdAt,value
2023-02-25T00:03:59.624Z,3.86
2023-02-25T00:08:02.661Z,3.77
2023-02-25T00:12:06.172Z,3.69
2023-02-25T00:16:10.378Z,3.64
2023-02-25T00:20:15.040Z,3.65
2023-02-25T00:24:18.232Z,3.56
2023-02-25T00:28:21.640Z,3.45
2023-02-25T00:32:24.846Z,3.40
2023-02-25T00:36:29.410Z,3.38
2023-02-25T00:40:32.515Z,3.31
2023-02-25T00:44:35.649Z,3.39
2023-02-25T00:48:39.986Z,3.33
2023-02-25T00:52:46.551Z,3.33
2023-02-25T00:56:51.533Z,3.33
2023-02-25T01:00:54.606Z,3.11
2023-02-25T01:04:57.709Z,3.01
2023-02-25T01:09:02.490Z,2.85
2023-02-25T01:13:05.608Z,2.87
2023-02-25T01:17:09.839Z,2.90
2023-02-25T01:21:18.534Z,2.76
2023-02-25T01:25:25.567Z,2.72
2023-02-25T01:29:30.763Z,2.75
2023-02-25T01:33:33.802Z,2.64
2023-02-25T01:37:38.171Z,2.62
2023-02-25T01:41:43.336Z,2.76
2023-02-25T01:45:46.498Z,2.81
2023-02-25T01:49:49.682Z,2.92
2023-02-25T01:53:53.074Z,2.96
2023-02-25T01:57:58.559Z,2.99
2023-02-25T02:02:01.699Z,2.99
2023-02-25T02:06:10.437Z,3.01
2023-02-25T02:10:14.760Z,2.95
2023-02-25T02:14:24.492Z,2.93
2023-02-25T02:18:34.969Z,2.92
2023-02-25T02:22:47.066Z,2.88
2023-02-25T02:26:58.973Z,3.08
2023-02-25T02:31:25.255Z,3.09
2023-02-25T02:35:39.619Z,3.09
2023-02-25T02:39:52.644Z,3.15
2023-02-25T02:44:03.531Z,3.13
2023-02-25T02:48:11.488Z,3.19
2023-02-25T02:52:17.928Z,3.23
2023-02-25T02:56:25.076Z,3.27
2023-02-25T03:00:31.873Z,3.28
2023-02-25T03:04:39.404Z,3.34
2023-02-25T03:08:45.894Z,3.29
2023-02-25T03:12:49.482Z,3.29
2023-02-25T03:16:57.756Z,3.28
2023-02-25T03:21:10.083Z,3.24
2023-02-25T03:25:19.057Z,3.25
2023-02-25T03:29:25.688Z,3.21
2023-02-25T03:33:34.413Z,3.24
2023-02-25T03:37:45.135Z,3.23
2023-02-25T03:41:52.376Z,3.30
2023-02-25T03:45:57.585Z,3.33
2023-02-25T03:50:04.600Z,3.31
2023-02-25T03:54:09.271Z,3.39
2023-02-25T03:58:13.010Z,3.40
2023-02-25T04:02:17.712Z,3.40
2023-02-25T04:06:23.941Z,3.42
2023-02-25T04:10:29.072Z,3.44
2023-02-25T04:14:32.199Z,3.49
2023-02-25T04:18:35.853Z,3.47
2023-02-25T04:22:40.958Z,3.53
2023-02-25T04:26:45.355Z,3.47
2023-02-25T04:30:48.843Z,3.41
2023-02-25T04:34:52.128Z,3.43
2023-02-25T04:38:56.342Z,3.43
2023-02-25T04:43:00.857Z,3.41
2023-02-25T04:47:04.197Z,3.37
2023-02-25T04:51:08.397Z,3.36
2023-02-25T04:55:12.165Z,3.35
2023-02-25T04:59:18.503Z,3.43
2023-02-25T05:03:21.570Z,3.38
2023-02-25T05:07:24.647Z,3.45
2023-02-25T05:11:29.869Z,3.42
2023-02-25T05:15:35.172Z,3.40
2023-02-25T05:19:38.200Z,3.43
2023-02-25T05:23:41.260Z,3.40
2023-02-25T05:27:44.344Z,3.40
2023-02-25T05:31:49.795Z,3.43
2023-02-25T05:35:52.975Z,3.47
2023-02-25T05:39:56.034Z,3.42
2023-02-25T05:43:59.228Z,3.46
2023-02-25T05:48:03.610Z,3.47
2023-02-25T05:52:06.619Z,3.50
2023-02-25T05:56:14.080Z,3.49
2023-02-25T06:00:21.513Z,3.50
2023-02-25T06:04:26.188Z,3.48
2023-02-25T06:08:29.187Z,3.49
2023-02-25T06:12:34.915Z,3.55
2023-02-25T06:16:40.101Z,3.54
2023-02-25T06:20:44.682Z,3.53
2023-02-25T06:24:47.887Z,3.55
2023-02-25T06:28:51.960Z,3.58
2023-02-25T06:32:55.656Z,3.60
2023-02-25T06:37:00.974Z,3.59
2023-02-25T06:41:07.749Z,3.64
2023-02-25T06:45:11.589Z,3.65
2023-02-25T06:49:14.730Z,3.65
2023-02-25T06:53:19.591Z,3.63
2023-02-25T06:57:22.666Z,3.63
2023-02-25T07:01:26.735Z,3.59
2023-02-25T07:05:30.094Z,3.65
2023-02-25T07:09:34.512Z,3.67
2023-02-25T07:13:38.160Z,3.68
2023-02-25T07:17:41.235Z,3.75
2023-02-25T07:21:44.669Z,3.80
2023-02-25T07:25:49.066Z,3.83
2023-02-25T07:29:52.396Z,3.93
2023-02-25T07:33:56.304Z,3.98
2023-02-25T07:37:59.322Z,4.10
2023-02-25T07:42:03.701Z,4.23
2023-02-25T07:46:07.419Z,4.42
2023-02-25T07:50:12.979Z,4.55
2023-02-25T07:54:17.352Z,4.26
2023-02-25T07:58:21.776Z,4.22
2023-02-25T08:02:24.843Z,4.26
2023-02-25T08:06:29.361Z,4.27
2023-02-25T08:10:32.715Z,4.36
2023-02-25T08:14:38.819Z,4.38
2023-02-25T08:18:42.817Z,4.41
2023-02-25T08:22:46.017Z,4.45
2023-02-25T08:26:49.095Z,4.53
2023-02-25T08:30:55.409Z,4.88
2023-02-25T08:34:58.506Z,4.67
2023-02-25T08:39:02.101Z,4.75
2023-02-25T08:43:05.160Z,5.01
2023-02-25T08:47:09.839Z,5.03
2023-02-25T08:51:14.717Z,5.19
2023-02-25T08:55:18.384Z,5.20
2023-02-25T08:59:21.436Z,6.07
2023-02-25T09:03:26.036Z,5.73
2023-02-25T09:07:29.139Z,5.62
2023-02-25T09:11:33.437Z,5.20
2023-02-25T09:15:36.549Z,5.50
2023-02-25T09:19:41.089Z,5.27
2023-02-25T09:23:44.680Z,5.29
2023-02-25T09:27:48.038Z,5.45
2023-02-25T09:31:51.393Z,5.44
2023-02-25T09:35:56.203Z,5.85
2023-02-25T09:39:59.316Z,5.61
2023-02-25T09:44:06.979Z,5.54
2023-02-25T09:48:18.730Z,5.70
2023-02-25T09:52:30.544Z,6.11
2023-02-25T09:56:34.317Z,6.27
2023-02-25T10:00:43.781Z,5.86
2023-02-25T10:04:57.514Z,5.94
2023-02-25T10:09:13.305Z,5.62
2023-02-25T10:13:28.892Z,5.53
2023-02-25T10:17:44.415Z,5.77
2023-02-25T10:21:58.480Z,5.81
2023-02-25T10:26:09.296Z,5.90
2023-02-25T10:30:17.246Z,5.74
2023-02-25T10:34:26.066Z,6.10
2023-02-25T10:38:29.381Z,6.08
2023-02-25T10:42:35.180Z,6.18
2023-02-25T10:46:43.732Z,4.93
2023-02-25T10:51:03.990Z,4.03
2023-02-25T10:55:27.941Z,4.05
2023-02-25T10:59:37.260Z,4.11
2023-02-25T11:03:47.578Z,4.36
2023-02-25T11:07:50.666Z,4.68
2023-02-25T11:11:56.217Z,4.59
2023-02-25T11:16:07.168Z,4.55
2023-02-25T11:20:23.811Z,4.71
2023-02-25T11:24:33.339Z,5.52
2023-02-25T11:28:41.340Z,6.73
2023-02-25T11:32:49.818Z,7.61
2023-02-25T11:36:53.644Z,7.24
2023-02-25T11:40:57.638Z,6.44
2023-02-25T11:45:03.396Z,7.28
2023-02-25T11:49:18.805Z,8.16
2023-02-25T11:53:32.394Z,7.57
2023-02-25T11:57:41.783Z,7.76
2023-02-25T12:02:00.425Z,7.78
2023-02-25T12:06:25.661Z,7.86
2023-02-25T12:11:03.104Z,7.78
2023-02-25T12:15:23.684Z,8.32
2023-02-25T12:19:54.210Z,8.61
2023-02-25T12:24:23.654Z,8.77
2023-02-25T12:28:51.362Z,8.34
2023-02-25T12:33:08.625Z,8.73
2023-02-25T12:37:27.342Z,8.78
2023-02-25T12:41:41.134Z,8.24
2023-02-25T12:45:57.425Z,8.10
2023-02-25T12:50:18.536Z,9.33
2023-02-25T12:54:39.043Z,8.99
2023-02-25T12:59:03.458Z,7.20
2023-02-25T13:03:25.639Z,6.97
2023-02-25T13:07:44.221Z,7.66
2023-02-25T13:12:11.444Z,8.74
2023-02-25T13:16:32.567Z,8.16
2023-02-25T13:21:15.730Z,7.21
2023-02-25T13:25:26.614Z,6.69
2023-02-25T13:29:53.550Z,6.85
2023-02-25T13:34:09.469Z,7.42
2023-02-25T13:38:29.122Z,7.61
2023-02-25T13:42:53.784Z,8.80
2023-02-25T13:47:15.066Z,9.08
2023-02-25T13:51:41.803Z,9.02
2023-02-25T13:56:02.551Z,9.46
2023-02-25T14:00:54.678Z,9.64
2023-02-25T14:05:24.059Z,8.28
2023-02-25T14:09:39.927Z,7.30
2023-02-25T14:13:57.543Z,6.90
2023-02-25T14:18:13.257Z,8.02
2023-02-25T14:22:27.379Z,8.33
2023-02-25T14:26:42.105Z,8.18
2023-02-25T14:30:57.688Z,8.95
2023-02-25T14:35:16.197Z,9.63
2023-02-25T14:39:33.427Z,7.87
2023-02-25T14:43:38.836Z,8.02
2023-02-25T14:47:48.511Z,8.56
2023-02-25T14:52:18.025Z,9.32
2023-02-25T14:56:49.064Z,9.54
2023-02-25T15:01:22.616Z,9.13
2023-02-25T15:05:41.560Z,8.90
2023-02-25T15:10:14.993Z,9.13
2023-02-25T15:14:37.519Z,7.83
2023-02-25T15:19:01.669Z,7.98
2023-02-25T15:23:08.527Z,7.51
2023-02-25T15:27:41.788Z,8.17
2023-02-25T15:32:05.507Z,8.13
2023-02-25T15:36:41.093Z,7.54
2023-02-25T15:40:49.016Z,7.05
2023-02-25T15:44:52.660Z,8.06
2023-02-25T15:49:05.802Z,7.65
2023-02-25T15:53:12.825Z,7.42
2023-02-25T15:57:37.962Z,7.32
2023-02-25T16:01:43.497Z,7.76
2023-02-25T16:05:47.853Z,7.52
2023-02-25T16:09:58.322Z,7.41
2023-02-25T16:14:04.571Z,6.90
2023-02-25T16:18:17.343Z,7.04
2023-02-25T16:22:23.549Z,6.93
2023-02-25T16:26:44.046Z,6.76
2023-02-25T16:30:55.384Z,6.48
2023-02-25T16:35:04.976Z,6.22
2023-02-25T16:39:13.848Z,5.87
2023-02-25T16:43:23.090Z,6.02
2023-02-25T16:47:29.198Z,5.65
2023-02-25T16:51:35.550Z,4.95
2023-02-25T16:55:41.415Z,4.75
2023-02-25T16:59:46.921Z,4.58
2023-02-25T17:03:50.092Z,4.42
2023-02-25T17:07:55.981Z,4.23
2023-02-25T17:11:59.825Z,4.13
2023-02-25T17:16:06.204Z,4.06
2023-02-25T17:20:17.233Z,3.96
2023-02-25T17:24:24.382Z,3.69
2023-02-25T17:28:32.865Z,3.51
2023-02-25T17:32:37.771Z,3.70
2023-02-25T17:36:41.369Z,3.51
2023-02-25T17:40:45.335Z,3.43
2023-02-25T17:44:48.573Z,3.28
2023-02-25T17:48:56.655Z,3.33
2023-02-25T17:53:00.911Z,3.21
2023-02-25T17:57:10.131Z,3.11
2023-02-25T18:01:23.955Z,3.16
2023-02-25T18:05:28.650Z,3.12
2023-02-25T18:09:39.095Z,3.08
2023-02-25T18:13:42.314Z,2.97
2023-02-25T18:17:50.504Z,2.90
2023-02-25T18:21:56.391Z,2.87
2023-02-25T18:26:14.397Z,2.79
2023-02-25T18:30:20.885Z,2.75
2023-02-25T18:34:24.102Z,2.62
2023-02-25T18:38:32.854Z,2.61
2023-02-25T18:42:35.985Z,2.52
2023-02-25T18:46:39.633Z,2.44
2023-02-25T18:50:44.851Z,2.37
2023-02-25T18:54:49.801Z,2.30
2023-02-25T18:58:54.747Z,2.32
2023-02-25T19:03:01.983Z,2.20
2023-02-25T19:07:10.457Z,2.11
2023-02-25T19:11:20.028Z,1.87
2023-02-25T19:15:23.215Z,1.92
2023-02-25T19:19:27.213Z,1.77
2023-02-25T19:23:30.618Z,1.72
2023-02-25T19:27:35.061Z,1.74
2023-02-25T19:31:38.654Z,1.79
2023-02-25T19:35:43.498Z,1.66
2023-02-25T19:39:46.933Z,1.63
2023-02-25T19:43:51.707Z,1.49
2023-02-25T19:47:55.927Z,1.49
2023-02-25T19:51:59.740Z,1.48
2023-02-25T19:56:03.783Z,1.44
2023-02-25T20:00:13.235Z,1.39
2023-02-25T20:04:16.409Z,1.20
2023-02-25T20:08:19.548Z,1.18
2023-02-25T20:12:22.679Z,1.13
2023-02-25T20:16:27.575Z,1.11
2023-02-25T20:20:30.808Z,1.00
2023-02-25T20:24:35.225Z,1.02
2023-02-25T20:28:38.377Z,0.84
2023-02-25T20:32:44.538Z,0.84
2023-02-25T20:36:52.746Z,0.81
2023-02-25T20:40:56.238Z,0.77
2023-02-25T20:45:01.825Z,0.66
2023-02-25T20:49:08.210Z,0.78
2023-02-25T20:53:11.315Z,0.61
2023-02-25T20:57:16.826Z,0.76
2023-02-25T21:01:20.212Z,0.71
2023-02-25T21:05:24.734Z,0.70
2023-02-25T21:09:28.040Z,0.68
2023-02-25T21:13:31.193Z,0.73
2023-02-25T21:17:34.378Z,0.63
2023-02-25T21:21:39.113Z,0.58
2023-02-25T21:25:42.264Z,0.81
2023-02-25T21:29:45.344Z,0.66
2023-02-25T21:33:48.590Z,0.59
2023-02-25T21:37:53.544Z,0.64
2023-02-25T21:41:56.752Z,0.46
2023-02-25T21:46:02.500Z,0.44
2023-02-25T21:50:06.445Z,0.56
2023-02-25T21:54:10.959Z,0.47
2023-02-25T21:58:15.118Z,0.42
2023-02-25T22:02:18.226Z,0.45
2023-02-25T22:06:24.259Z,0.42
2023-02-25T22:10:29.107Z,0.27
2023-02-25T22:14:32.255Z,0.21
2023-02-25T22:18:36.257Z,0.26
2023-02-25T22:22:39.616Z,0.20
2023-02-25T22:26:45.803Z,0.13
2023-02-25T22:30:48.964Z,0.15
2023-02-25T22:34:52.088Z,0.26
2023-02-25T22:38:55.876Z,0.27
2023-02-25T22:43:00.296Z,0.15
2023-02-25T22:47:03.982Z,0.05
2023-02-25T22:51:09.337Z,0.01
2023-02-25T22:55:12.392Z,-0.14
2023-02-25T22:59:17.557Z,-0.03
2023-02-25T23:03:20.663Z,-0.05
2023-02-25T23:07:23.709Z,-0.11
2023-02-25T23:11:29.038Z,-0.16
2023-02-25T23:15:33.905Z,-0.29
2023-02-25T23:19:37.341Z,-0.38
2023-02-25T23:23:42.441Z,-0.42
2023-02-25T23:27:46.655Z,-0.56
2023-02-25T23:31:51.552Z,-0.53
2023-02-25T23:35:54.664Z,-0.50
2023-02-25T23:39:57.725Z,-0.69
2023-02-25T23:44:01.824Z,-0.71
2023-02-25T23:48:07.343Z,-0.78
2023-02-25T23:52:10.540Z,-0.81
2023-02-25T23:56:15.411Z,-0.93
